Time;durP1;ratioP1;P1;durP2;ratioP2;P2;SDS_P1;SDS_P2;PMS_P1;PMS_P2;Temp;Humidity;BMP_temperature;BMP_pressure;BME280_temperature;BME280_humidity;BME280_pressure;Samples;Min_cycle;Max_cycle;Signal;HPM_P1;HPM_P2
2022/08/19 00:01:12;;;;;;;21.85;19.63;;;21.30;99.90;;;;;;4589808;19;19919;-42
2022/08/19 00:02:43;;;;;;;23.27;20.90;;;21.30;99.90;;;;;;4590996;19;20017;-42
2022/08/19 00:04:15;;;;;;;22.48;20.35;;;21.40;99.90;;;;;;4590851;19;20016;-37
2022/08/19 00:05:47;;;;;;;21.40;19.38;;;21.30;99.90;;;;;;4590532;19;20069;-41
2022/08/19 00:07:19;;;;;;;23.40;21.08;;;21.30;99.90;;;;;;4591256;19;20131;-35
2022/08/19 00:08:51;;;;;;;22.35;20.30;;;21.30;99.90;;;;;;4590641;19;20007;-35
2022/08/19 00:10:23;;;;;;;21.83;19.73;;;21.30;99.90;;;;;;4589779;19;20480;-34
2022/08/19 00:11:55;;;;;;;21.95;20.05;;;21.30;99.90;;;;;;4589945;19;20015;-36
2022/08/19 00:13:28;;;;;;;24.73;21.98;;;21.30;99.90;;;;;;4590526;19;20017;-35
2022/08/19 00:14:59;;;;;;;22.77;20.77;;;21.30;99.90;;;;;;4590294;19;20010;-34
2022/08/19 00:16:30;;;;;;;22.50;20.20;;;21.30;99.90;;;;;;4590829;19;20126;-34
2022/08/19 00:18:02;;;;;;;23.50;21.33;;;21.30;99.90;;;;;;4590900;19;20014;-40
2022/08/19 00:19:33;;;;;;;24.50;20.85;;;21.30;99.90;;;;;;4589956;19;20357;-34
2022/08/19 00:21:07;;;;;;;22.95;20.85;;;21.30;99.90;;;;;;4589512;19;20034;-37
2022/08/19 00:22:38;;;;;;;22.92;20.58;;;21.30;99.90;;;;;;4589475;19;20495;-34
2022/08/19 00:24:10;;;;;;;22.40;20.17;;;21.30;99.90;;;;;;4590296;19;20082;-33
2022/08/19 00:25:42;;;;;;;23.50;21.25;;;21.30;99.90;;;;;;4589695;19;20082;-35
2022/08/19 00:27:13;;;;;;;23.95;21.50;;;21.30;99.90;;;;;;4589889;19;20018;-35
2022/08/19 00:28:44;;;;;;;22.67;20.45;;;21.30;99.90;;;;;;4590252;19;20010;-38
2022/08/19 00:30:15;;;;;;;22.95;20.83;;;21.30;99.90;;;;;;4591080;19;20491;-34
2022/08/19 00:31:47;;;;;;;22.52;20.42;;;21.30;99.90;;;;;;4589982;19;20372;-35
2022/08/19 00:33:18;;;;;;;22.20;20.10;;;21.30;99.90;;;;;;4589291;19;20011;-41
2022/08/19 00:34:49;;;;;;;24.23;21.90;;;21.30;99.90;;;;;;4589759;19;20365;-44
2022/08/19 00:36:20;;;;;;;23.15;20.95;;;21.30;99.90;;;;;;4591020;19;20006;-34
2022/08/19 00:37:52;;;;;;;23.40;21.15;;;21.30;99.90;;;;;;4590008;19;20010;-43
2022/08/19 00:39:23;;;;;;;22.95;20.63;;;21.30;99.90;;;;;;4590059;19;20015;-38
2022/08/19 00:40:54;;;;;;;24.05;21.63;;;21.30;99.90;;;;;;4589324;19;20011;-34
2022/08/19 00:42:28;;;;;;;;;;;21.30;99.90;;;;;;4591170;19;20478;-34
2022/08/19 00:44:00;;;;;;;22.58;20.38;;;21.30;99.90;;;;;;4589910;19;20281;-34
2022/08/19 00:47:21;;;;;;;22.35;20.15;;;21.30;99.90;;;;;;4589461;19;20070;-39
2022/08/19 00:48:52;;;;;;;24.10;21.70;;;21.30;99.90;;;;;;4590199;19;20022;-37
2022/08/19 00:50:23;;;;;;;22.98;20.80;;;21.30;99.90;;;;;;4588785;19;20030;-34
2022/08/19 00:52:04;;;;;;;23.15;20.98;;;21.30;99.90;;;;;;4589784;19;20006;-35
2022/08/19 00:53:35;;;;;;;23.05;20.60;;;21.30;99.90;;;;;;4589182;19;20011;-35
2022/08/19 00:55:10;;;;;;;23.02;20.83;;;21.30;99.90;;;;;;4590056;19;20479;-35
2022/08/19 00:56:41;;;;;;;22.55;20.27;;;21.30;99.90;;;;;;4588580;19;20006;-34
2022/08/19 00:58:13;;;;;;;22.83;20.63;;;21.30;99.90;;;;;;4589047;19;20011;-38
2022/08/19 00:59:46;;;;;;;23.70;21.50;;;21.30;99.90;;;;;;4588882;19;20007;-35
2022/08/19 01:01:17;;;;;;;23.98;21.70;;;21.30;99.90;;;;;;4588315;19;20003;-34
2022/08/19 01:02:49;;;;;;;24.00;21.60;;;21.30;99.90;;;;;;4589353;19;20021;-36
2022/08/19 01:04:20;;;;;;;22.92;20.65;;;21.30;99.90;;;;;;4589789;19;20011;-34
2022/08/19 01:05:52;;;;;;;24.00;21.65;;;21.30;99.90;;;;;;4589851;19;20376;-35
2022/08/19 01:07:23;;;;;;;;;;;21.30;99.90;;;;;;4590200;19;20011;-33
2022/08/19 01:08:55;;;;;;;22.63;20.55;;;21.30;99.90;;;;;;4588432;19;19922;-37
2022/08/19 01:10:28;;;;;;;24.13;21.90;;;21.30;99.90;;;;;;4588337;19;20014;-38
2022/08/19 01:11:59;;;;;;;24.65;22.40;;;21.30;99.90;;;;;;4589929;19;20015;-42
2022/08/19 01:13:32;;;;;;;23.40;20.75;;;21.30;99.90;;;;;;4589960;19;20537;-39
2022/08/19 01:15:05;;;;;;;22.90;20.52;;;21.30;99.90;;;;;;4588390;19;20014;-44
2022/08/19 01:16:37;;;;;;;24.30;21.95;;;21.30;99.90;;;;;;4588566;19;20032;-34
2022/08/19 01:18:09;;;;;;;23.73;21.40;;;21.30;99.90;;;;;;4588631;19;20372;-34
2022/08/19 01:19:41;;;;;;;24.10;21.67;;;21.30;99.90;;;;;;4587355;19;20015;-39
2022/08/19 01:21:16;;;;;;;;;;;21.30;99.90;;;;;;4588068;19;20078;-34
2022/08/19 01:22:55;;;;;;;23.13;20.85;;;21.30;99.90;;;;;;4591256;19;19918;-38
2022/08/19 01:24:26;;;;;;;24.35;22.05;;;21.30;99.90;;;;;;4593465;19;19999;-42
2022/08/19 01:25:58;;;;;;;23.77;21.52;;;21.30;99.90;;;;;;4593463;19;20018;-36
2022/08/19 01:27:40;;;;;;;24.27;21.98;;;21.30;99.90;;;;;;4593995;19;20014;-39
2022/08/19 01:29:11;;;;;;;23.35;21.13;;;21.30;99.90;;;;;;4593253;19;20011;-41
2022/08/19 01:30:43;;;;;;;24.52;22.13;;;21.20;99.90;;;;;;4593996;19;20014;-35
2022/08/19 01:32:15;;;;;;;23.33;21.02;;;21.30;99.90;;;;;;4594345;19;20019;-40
2022/08/19 01:33:47;;;;;;;23.17;20.90;;;21.30;99.90;;;;;;4594035;19;20015;-41
2022/08/19 01:35:18;;;;;;;23.38;21.05;;;21.20;99.90;;;;;;4594274;19;20420;-35
2022/08/19 01:36:49;;;;;;;;;;;21.30;99.90;;;;;;4595226;19;20035;-35
2022/08/19 01:38:25;;;;;;;22.92;20.83;;;21.30;99.90;;;;;;4593779;19;19943;-37
2022/08/19 01:39:57;;;;;;;23.60;21.20;;;21.20;99.90;;;;;;4592747;19;20023;-37
2022/08/19 01:41:28;;;;;;;23.27;21.20;;;21.20;99.90;;;;;;4592762;19;20007;-41
2022/08/19 01:42:59;;;;;;;21.92;19.92;;;21.20;99.90;;;;;;4593830;19;20074;-36
2022/08/19 01:44:30;;;;;;;21.92;19.77;;;21.20;99.90;;;;;;4593425;19;20093;-40
2022/08/19 01:46:03;;;;;;;23.13;20.98;;;21.20;99.90;;;;;;4593801;19;20015;-38
2022/08/19 01:47:36;;;;;;;22.00;19.90;;;21.20;99.90;;;;;;4594299;19;20007;-34
2022/08/19 01:49:08;;;;;;;23.67;21.45;;;21.20;99.90;;;;;;4594190;19;20354;-34
2022/08/19 01:50:39;;;;;;;;;;;21.20;99.90;;;;;;4594394;19;20031;-35
2022/08/19 01:52:10;;;;;;;22.52;20.02;;;21.20;99.90;;;;;;4590815;19;19915;-40
2022/08/19 01:53:41;;;;;;;23.50;21.13;;;21.20;99.90;;;;;;4593126;19;20010;-40
2022/08/19 01:55:15;;;;;;;25.77;23.42;;;21.20;99.90;;;;;;4593327;19;20039;-39
2022/08/19 01:56:46;;;;;;;21.88;19.80;;;21.20;99.90;;;;;;4593259;19;20018;-35
2022/08/19 01:58:20;;;;;;;23.00;20.80;;;21.20;99.90;;;;;;4593984;19;20393;-33
2022/08/19 01:59:51;;;;;;;21.42;19.42;;;21.20;99.90;;;;;;4592287;19;20368;-43
2022/08/19 02:01:22;;;;;;;23.42;21.13;;;21.20;99.90;;;;;;4591168;19;20062;-36
2022/08/19 02:02:54;;;;;;;22.83;20.73;;;21.20;99.90;;;;;;4593424;19;20022;-40
2022/08/19 02:04:26;;;;;;;22.58;20.38;;;21.20;99.90;;;;;;4593684;19;20482;-42
2022/08/19 02:05:59;;;;;;;21.40;19.38;;;21.20;99.90;;;;;;4593435;19;20014;-44
2022/08/19 02:07:30;;;;;;;21.98;19.98;;;21.20;99.90;;;;;;4592915;19;20010;-34
2022/08/19 02:09:03;;;;;;;21.85;19.73;;;21.20;99.90;;;;;;4593336;19;20451;-34
2022/08/19 02:10:34;;;;;;;22.27;20.17;;;21.20;99.90;;;;;;4593544;19;20042;-36
2022/08/19 02:12:05;;;;;;;21.98;19.85;;;21.20;99.90;;;;;;4591891;19;20010;-36
2022/08/19 02:13:36;;;;;;;22.48;20.08;;;21.20;99.90;;;;;;4592653;19;20013;-34
2022/08/19 02:15:08;;;;;;;22.30;19.85;;;21.20;99.90;;;;;;4592022;19;20010;-34
2022/08/19 02:16:40;;;;;;;22.90;20.80;;;21.20;99.90;;;;;;4593055;19;20058;-34
2022/08/19 02:18:11;;;;;;;22.40;20.38;;;21.20;99.90;;;;;;4593124;19;20006;-35
2022/08/19 02:19:42;;;;;;;21.42;19.35;;;21.20;99.90;;;;;;4592002;19;20022;-36
2022/08/19 02:21:15;;;;;;;22.25;20.05;;;21.20;99.90;;;;;;4591863;19;20015;-35
2022/08/19 02:22:46;;;;;;;22.52;20.13;;;21.20;99.90;;;;;;4593740;19;20003;-34
2022/08/19 02:24:17;;;;;;;21.67;19.52;;;21.10;99.90;;;;;;4591643;19;20018;-35
2022/08/19 02:25:49;;;;;;;22.92;20.52;;;21.20;99.90;;;;;;4592614;19;20070;-33
2022/08/19 02:27:21;;;;;;;25.35;22.63;;;21.20;99.90;;;;;;4592092;19;20357;-35
2022/08/19 02:28:54;;;;;;;22.00;19.95;;;21.10;99.90;;;;;;4592054;19;20043;-38
2022/08/19 02:30:25;;;;;;;23.70;21.30;;;21.10;99.90;;;;;;4592248;19;20015;-33
2022/08/19 02:31:56;;;;;;;22.92;20.67;;;21.20;99.90;;;;;;4591901;19;20033;-34
2022/08/19 02:33:27;;;;;;;23.50;21.30;;;21.20;99.90;;;;;;4592636;19;20081;-39
2022/08/19 02:34:58;;;;;;;22.98;20.88;;;21.10;99.90;;;;;;4593062;19;20373;-36
2022/08/19 02:36:30;;;;;;;22.67;20.48;;;21.20;99.90;;;;;;4591445;19;20116;-33
2022/08/19 02:39:50;;;;;;;23.23;20.83;;;21.20;99.90;;;;;;4591248;19;20389;-35
2022/08/19 02:41:27;;;;;;;22.67;20.52;;;21.20;99.90;;;;;;4591887;19;20013;-35
2022/08/19 02:42:58;;;;;;;23.50;21.20;;;21.20;99.90;;;;;;4592300;19;20360;-35
2022/08/19 02:44:29;;;;;;;22.13;20.10;;;21.20;99.90;;;;;;4593019;19;20010;-35
2022/08/19 02:46:00;;;;;;;22.77;20.55;;;21.20;99.90;;;;;;4592760;19;20031;-34
2022/08/19 02:47:31;;;;;;;23.17;21.08;;;21.20;99.90;;;;;;4593074;19;20014;-40
2022/08/19 02:49:05;;;;;;;21.95;19.77;;;21.20;99.90;;;;;;4592362;19;20010;-36
2022/08/19 02:50:39;;;;;;;22.90;20.80;;;21.20;99.90;;;;;;4592022;19;20486;-33
2022/08/19 02:52:11;;;;;;;22.58;20.48;;;21.20;99.90;;;;;;4592729;19;20017;-39
2022/08/19 02:53:42;;;;;;;22.38;20.38;;;21.20;99.90;;;;;;4592875;19;20037;-35
2022/08/19 02:55:13;;;;;;;23.17;20.88;;;21.20;99.90;;;;;;4592060;19;20039;-41
2022/08/19 02:56:44;;;;;;;22.45;20.27;;;21.20;99.90;;;;;;4592457;19;20049;-38
2022/08/19 02:58:16;;;;;;;22.10;20.00;;;21.10;99.90;;;;;;4592113;19;20014;-37
2022/08/19 02:59:46;;;;;;;23.40;21.17;;;21.10;99.90;;;;;;4592513;19;20002;-34
2022/08/19 03:01:26;;;;;;;22.30;20.10;;;21.20;99.90;;;;;;4590971;19;20468;-36
2022/08/19 03:03:00;;;;;;;23.55;21.25;;;21.10;99.90;;;;;;4589525;19;20015;-36
2022/08/19 03:04:31;;;;;;;22.98;20.88;;;21.10;99.90;;;;;;4591570;19;20006;-36
2022/08/19 03:06:07;;;;;;;23.58;21.38;;;21.20;99.90;;;;;;4591961;19;20078;-36
2022/08/19 03:07:38;;;;;;;23.55;21.38;;;21.20;99.90;;;;;;4590701;19;20015;-35
2022/08/19 03:09:09;;;;;;;22.65;20.55;;;21.20;99.90;;;;;;4591877;19;20010;-34
2022/08/19 03:10:46;;;;;;;23.73;21.42;;;21.20;99.90;;;;;;4592038;19;20396;-34
2022/08/19 03:12:17;;;;;;;22.55;20.17;;;21.20;99.90;;;;;;4590716;19;20006;-40
2022/08/19 03:13:50;;;;;;;21.85;19.83;;;21.20;99.90;;;;;;4591480;19;20478;-33
2022/08/19 03:15:21;;;;;;;22.60;20.40;;;21.10;99.90;;;;;;4592137;19;20088;-33
2022/08/19 03:16:53;;;;;;;22.45;20.45;;;21.10;99.90;;;;;;4592108;19;20529;-38
2022/08/19 03:18:24;;;;;;;22.25;20.05;;;21.10;99.90;;;;;;4592105;19;20347;-40
2022/08/19 03:19:55;;;;;;;22.42;20.10;;;21.10;99.90;;;;;;4590766;19;20018;-39
2022/08/19 03:21:28;;;;;;;29.40;21.63;;;21.20;99.90;;;;;;4590893;19;20063;-33
2022/08/19 03:22:59;;;;;;;23.17;20.75;;;21.10;99.90;;;;;;4590929;19;20010;-40
2022/08/19 03:24:31;;;;;;;23.33;21.17;;;21.10;99.90;;;;;;4591214;19;20032;-42
2022/08/19 03:26:05;;;;;;;23.50;21.15;;;21.10;99.90;;;;;;4590496;19;20078;-38
2022/08/19 03:27:36;;;;;;;24.15;21.83;;;21.10;99.90;;;;;;4591718;19;20083;-34
2022/08/19 03:29:09;;;;;;;22.55;20.27;;;21.10;99.90;;;;;;4592185;19;20015;-34
2022/08/19 03:30:41;;;;;;;24.25;21.65;;;21.10;99.90;;;;;;4591511;19;20107;-36
2022/08/19 03:32:12;;;;;;;24.05;21.92;;;21.10;99.90;;;;;;4591653;19;20345;-41
2022/08/19 03:33:43;;;;;;;25.05;22.55;;;21.10;99.90;;;;;;4591700;19;20398;-35
2022/08/19 03:35:15;;;;;;;22.95;20.80;;;21.10;99.90;;;;;;4589279;19;20020;-38
2022/08/19 03:36:46;;;;;;;23.33;21.13;;;21.10;99.90;;;;;;4590493;19;20053;-37
2022/08/19 03:38:17;;;;;;;23.90;21.55;;;21.10;99.90;;;;;;4591855;19;20030;-38
2022/08/19 03:39:48;;;;;;;24.20;21.73;;;21.10;99.90;;;;;;4590909;19;20003;-41
2022/08/19 03:41:21;;;;;;;24.08;21.70;;;21.10;99.90;;;;;;4590056;19;20014;-34
2022/08/19 03:42:52;;;;;;;21.88;19.73;;;21.10;99.90;;;;;;4588737;19;20011;-34
2022/08/19 03:44:23;;;;;;;23.73;21.30;;;21.10;99.90;;;;;;4590373;19;20066;-34
2022/08/19 03:46:05;;;;;;;23.50;21.27;;;21.10;99.90;;;;;;4590257;19;20003;-39
2022/08/19 03:47:36;;;;;;;23.33;20.85;;;21.10;99.90;;;;;;4589966;19;20007;-39
2022/08/19 03:49:08;;;;;;;21.77;19.67;;;21.10;99.90;;;;;;4590967;19;20006;-37
2022/08/19 03:50:39;;;;;;;22.60;20.38;;;21.10;99.90;;;;;;4591105;19;20022;-35
2022/08/19 03:52:10;;;;;;;;;;;21.10;99.90;;;;;;4592273;19;20028;-42
2022/08/19 03:53:42;;;;;;;23.75;21.42;;;21.10;99.90;;;;;;4590980;19;20325;-33
2022/08/19 03:55:13;;;;;;;22.25;20.25;;;21.10;99.90;;;;;;4591193;19;20034;-36
2022/08/19 03:56:44;;;;;;;;;;;21.10;99.90;;;;;;4592252;19;20007;-35
2022/08/19 03:58:15;;;;;;;22.98;20.80;;;21.10;99.90;;;;;;4590303;19;19947;-39
2022/08/19 03:59:47;;;;;;;22.42;20.23;;;21.10;99.90;;;;;;4590462;19;20014;-40
2022/08/19 04:01:20;;;;;;;22.70;20.55;;;21.20;99.90;;;;;;4589929;19;20082;-34
2022/08/19 04:02:51;;;;;;;23.45;21.20;;;21.20;99.90;;;;;;4592804;19;20343;-34
2022/08/19 04:04:23;;;;;;;24.45;21.90;;;21.20;99.90;;;;;;4590797;19;20002;-42
2022/08/19 04:05:54;;;;;;;22.30;20.35;;;21.20;99.90;;;;;;4590841;19;20017;-35
2022/08/19 04:07:25;;;;;;;22.42;19.55;;;21.20;99.90;;;;;;4591352;19;20022;-41
2022/08/19 04:08:57;;;;;;;22.15;19.90;;;21.30;99.90;;;;;;4592446;19;20072;-39
2022/08/19 04:10:28;;;;;;;22.40;20.15;;;21.20;99.90;;;;;;4591008;19;20089;-40
2022/08/19 04:12:00;;;;;;;;;;;21.30;99.90;;;;;;4593057;19;20010;-38
2022/08/19 04:13:31;;;;;;;21.27;19.27;;;21.30;99.90;;;;;;4592986;19;20373;-39
2022/08/19 04:15:02;;;;;;;20.20;18.20;;;21.40;99.90;;;;;;4591131;19;20041;-40
2022/08/19 04:16:33;;;;;;;21.80;19.88;;;21.40;99.90;;;;;;4589277;19;20006;-45
2022/08/19 04:18:07;;;;;;;17.10;15.60;;;21.30;99.90;;;;;;4589304;19;20492;-35
2022/08/19 04:19:38;;;;;;;19.35;17.55;;;21.50;99.90;;;;;;4589966;19;20023;-41
2022/08/19 04:21:15;;;;;;;17.88;16.17;;;21.70;99.90;;;;;;4589630;19;20041;-39
2022/08/19 04:22:46;;;;;;;17.38;15.77;;;21.90;99.90;;;;;;4589201;19;20011;-36
2022/08/19 04:24:18;;;;;;;17.40;15.68;;;22.00;99.90;;;;;;4590033;19;20018;-37
2022/08/19 04:25:49;;;;;;;16.80;15.30;;;22.20;99.90;;;;;;4590563;19;20010;-35
2022/08/19 04:27:20;;;;;;;15.32;13.82;;;22.30;99.90;;;;;;4590551;19;20003;-41
2022/08/19 04:28:51;;;;;;;15.88;14.40;;;22.40;99.90;;;;;;4589140;19;20014;-38
2022/08/19 04:30:22;;;;;;;;;;;22.50;99.90;;;;;;4590375;19;20030;-36
2022/08/19 04:31:55;;;;;;;14.80;13.38;;;22.50;99.90;;;;;;4590028;19;19966;-40
2022/08/19 04:33:28;;;;;;;14.07;12.75;;;22.60;99.90;;;;;;4589072;19;20011;-42
2022/08/19 04:34:59;;;;;;;14.23;12.93;;;22.70;99.90;;;;;;4589978;19;20018;-34
2022/08/19 04:36:34;;;;;;;;;;;22.70;99.90;;;;;;4591228;19;20503;-35
2022/08/19 04:38:05;;;;;;;13.75;12.35;;;22.80;99.90;;;;;;4590792;19;19918;-35
2022/08/19 04:43:23;;;;;;;14.68;13.25;;;22.90;99.90;;;;;;4589772;19;20018;-36
2022/08/19 04:44:54;;;;;;;14.18;12.88;;;22.90;99.90;;;;;;4587785;19;20015;-36
2022/08/19 04:46:26;;;;;;;14.70;13.20;;;23.00;99.90;;;;;;4587995;19;20003;-40
2022/08/19 04:47:57;;;;;;;14.65;13.35;;;23.10;99.90;;;;;;4587443;19;20016;-40
2022/08/19 04:49:29;;;;;;;13.85;12.57;;;23.10;99.90;;;;;;4587849;19;20014;-38
2022/08/19 04:51:00;;;;;;;14.20;12.80;;;23.10;99.90;;;;;;4587701;19;20055;-35
2022/08/19 04:52:32;;;;;;;14.05;12.75;;;23.20;99.90;;;;;;4588099;19;20010;-40
2022/08/19 04:54:04;;;;;;;12.60;11.48;;;23.30;99.90;;;;;;4587450;19;20052;-40
2022/08/19 04:55:37;;;;;;;;;;;23.30;99.90;;;;;;4588705;19;20021;-40
2022/08/19 04:57:09;;;;;;;13.60;12.30;;;23.30;99.90;;;;;;4591951;19;19915;-34
2022/08/19 04:58:42;;;;;;;13.85;12.55;;;23.40;99.90;;;;;;4592965;19;20006;-34
2022/08/19 05:00:14;;;;;;;14.02;12.75;;;23.40;99.90;;;;;;4591794;19;20035;-36
2022/08/19 05:01:49;;;;;;;14.27;12.43;;;23.50;99.90;;;;;;4592437;19;20017;-37
2022/08/19 05:03:20;;;;;;;12.27;11.07;;;23.50;99.90;;;;;;4592976;19;19999;-39
2022/08/19 05:04:59;;;;;;;12.25;11.13;;;23.50;99.90;;;;;;4592244;19;20070;-33
2022/08/19 05:06:32;;;;;;;15.00;13.30;;;23.60;99.90;;;;;;4592037;19;20018;-34
2022/08/19 05:08:03;;;;;;;14.77;13.07;;;23.70;99.90;;;;;;4592317;19;20015;-38
2022/08/19 05:09:34;;;;;;;15.32;13.57;;;23.80;99.90;;;;;;4592012;19;20007;-39
2022/08/19 05:11:16;;;;;;;14.45;12.93;;;24.00;99.90;;;;;;4592199;19;20089;-34
2022/08/19 05:12:48;;;;;;;14.25;12.82;;;24.10;99.90;;;;;;4592056;19;20019;-41
2022/08/19 05:14:20;;;;;;;13.52;12.23;;;24.20;99.90;;;;;;4592419;19;20013;-38
2022/08/19 05:15:56;;;;;;;12.55;11.30;;;24.30;99.90;;;;;;4592255;19;20379;-37
2022/08/19 05:17:27;;;;;;;16.05;13.32;;;24.40;99.90;;;;;;4592040;19;20065;-43
2022/08/19 05:22:38;;;;;;;13.57;12.35;;;24.70;99.90;;;;;;4594377;19;20058;-37
2022/08/19 05:24:09;;;;;;;;;;;24.80;99.90;;;;;;4594140;19;20015;-40
2022/08/19 05:25:40;;;;;;;15.38;12.35;;;24.80;99.90;;;;;;4593677;19;20329;-37
2022/08/19 05:27:12;;;;;;;11.20;10.07;;;24.90;99.90;;;;;;4593003;19;20046;-41
2022/08/19 05:28:43;;;;;;;15.23;12.38;;;24.90;99.90;;;;;;4593840;19;20017;-35
2022/08/19 05:30:14;;;;;;;13.23;11.95;;;24.90;99.90;;;;;;4594707;19;20334;-39
2022/08/19 05:31:46;;;;;;;14.00;11.82;;;24.90;99.90;;;;;;4592657;19;20015;-38
2022/08/19 05:33:17;;;;;;;;;;;24.90;99.90;;;;;;4593735;19;20011;-36
2022/08/19 05:34:48;;;;;;;12.90;11.60;;;24.80;99.90;;;;;;4593092;19;19914;-34
2022/08/19 05:36:20;;;;;;;;;;;24.80;99.90;;;;;;4594500;19;20019;-40
2022/08/19 05:37:54;;;;;;;13.30;12.10;;;24.80;99.90;;;;;;4594489;19;19941;-42
2022/08/19 05:39:27;;;;;;;13.93;12.05;;;24.80;99.90;;;;;;4594518;19;20014;-42
2022/08/19 05:40:58;;;;;;;14.30;10.98;;;24.70;99.90;;;;;;4591079;19;20015;-39
2022/08/19 05:42:30;;;;;;;11.25;10.20;;;24.70;99.90;;;;;;4593102;19;20067;-40
2022/08/19 05:44:02;;;;;;;11.95;9.95;;;24.70;99.90;;;;;;4593217;19;20035;-35
2022/08/19 05:45:39;;;;;;;12.95;11.57;;;24.70;99.90;;;;;;4592833;19;20436;-37
2022/08/19 05:47:11;;;;;;;11.25;10.15;;;24.70;99.90;;;;;;4592708;19;20480;-39
2022/08/19 05:48:42;;;;;;;10.63;8.77;;;24.80;99.90;;;;;;4592951;19;20082;-33
2022/08/19 05:50:13;;;;;;;12.52;10.52;;;24.80;99.90;;;;;;4593977;19;20484;-40
2022/08/19 05:51:44;;;;;;;11.63;10.40;;;24.90;99.90;;;;;;4593925;19;20014;-37
2022/08/19 05:53:17;;;;;;;11.77;10.55;;;24.90;99.90;;;;;;4594071;19;20006;-42
2022/08/19 05:54:50;;;;;;;11.73;10.35;;;24.90;99.90;;;;;;4593424;19;20029;-39
2022/08/19 05:56:21;;;;;;;16.98;12.23;;;24.90;99.90;;;;;;4591861;19;20011;-35
2022/08/19 05:57:52;;;;;;;13.88;12.48;;;25.00;99.90;;;;;;4591386;19;20018;-40
2022/08/19 05:59:23;;;;;;;12.68;10.98;;;25.00;99.90;;;;;;4592309;19;20015;-42
2022/08/19 06:00:55;;;;;;;13.45;11.82;;;25.00;99.90;;;;;;4590860;19;20352;-36
2022/08/19 06:02:27;;;;;;;12.65;11.43;;;25.00;99.90;;;;;;4591456;19;20020;-42
2022/08/19 06:03:58;;;;;;;13.82;12.40;;;25.00;99.90;;;;;;4591759;19;20014;-37
2022/08/19 06:05:31;;;;;;;12.55;11.32;;;25.00;99.90;;;;;;4594479;19;20018;-41
2022/08/19 06:07:03;;;;;;;12.35;9.85;;;25.00;99.90;;;;;;4593563;19;20438;-40
2022/08/19 06:08:36;;;;;;;12.30;10.73;;;25.10;99.90;;;;;;4591928;19;20021;-38
2022/08/19 06:10:08;;;;;;;13.02;11.73;;;25.10;99.90;;;;;;4593155;19;20571;-35
2022/08/19 06:11:43;;;;;;;14.70;11.82;;;25.10;99.90;;;;;;4592052;19;20037;-45
2022/08/19 06:13:14;;;;;;;13.30;11.80;;;25.10;99.90;;;;;;4592180;19;20344;-42
2022/08/19 06:14:45;;;;;;;12.75;10.45;;;25.10;99.90;;;;;;4592105;19;20082;-33
2022/08/19 06:16:26;;;;;;;15.02;12.73;;;25.10;99.90;;;;;;4589190;19;20014;-39
2022/08/19 06:17:57;;;;;;;11.70;10.50;;;25.10;99.90;;;;;;4591302;19;20356;-33
2022/08/19 06:19:32;;;;;;;13.57;10.88;;;25.10;99.90;;;;;;4587903;19;20102;-36
2022/08/19 06:21:04;;;;;;;12.75;11.40;;;25.10;99.90;;;;;;4588762;19;20018;-38
2022/08/19 06:22:43;;;;;;;16.45;11.30;;;25.10;99.90;;;;;;4590740;19;20014;-36
2022/08/19 06:24:17;;;;;;;11.85;10.63;;;25.20;99.90;;;;;;4593923;19;20434;-39
2022/08/19 06:25:48;;;;;;;11.27;10.18;;;25.10;99.90;;;;;;4592299;19;20092;-38
2022/08/19 06:27:20;;;;;;;10.77;9.23;;;25.10;99.90;;;;;;4592692;19;20523;-39
2022/08/19 06:28:51;;;;;;;;;;;25.20;99.90;;;;;;4593805;19;20452;-37
2022/08/19 06:30:22;;;;;;;11.70;8.55;;;25.20;99.90;;;;;;4592842;19;19918;-40
2022/08/19 06:31:55;;;;;;;11.55;9.93;;;25.20;99.90;;;;;;4591029;19;20014;-43
2022/08/19 06:33:27;;;;;;;10.63;9.63;;;25.20;99.90;;;;;;4591593;19;20015;-37
2022/08/19 06:34:57;;;;;;;13.07;10.55;;;25.20;99.90;;;;;;4591311;19;20002;-40
2022/08/19 06:36:35;;;;;;;12.18;10.07;;;25.20;99.90;;;;;;4591401;19;20010;-41
2022/08/19 06:38:09;;;;;;;12.80;10.05;;;25.30;99.90;;;;;;4590865;19;20010;-39
2022/08/19 06:39:41;;;;;;;10.60;8.93;;;25.30;99.90;;;;;;4590686;19;20018;-39
2022/08/19 06:41:13;;;;;;;12.07;9.63;;;25.20;99.90;;;;;;4592807;19;20017;-36
2022/08/19 06:42:43;;;;;;;11.48;9.88;;;25.20;99.90;;;;;;4594004;19;20015;-36
2022/08/19 06:44:15;;;;;;;11.30;9.80;;;25.20;99.90;;;;;;4592417;19;20471;-39
2022/08/19 06:45:46;;;;;;;7.90;7.20;;;25.30;99.90;;;;;;4593124;19;20006;-38
2022/08/19 06:47:19;;;;;;;13.23;10.98;;;24.70;99.90;;;;;;4592278;19;20002;-35
2022/08/19 06:48:53;;;;;;;13.15;11.95;;;24.00;99.90;;;;;;4591312;19;20330;-40
2022/08/19 06:50:24;;;;;;;14.98;12.88;;;23.50;99.90;;;;;;4590043;19;20025;-39
2022/08/19 06:51:56;;;;;;;14.60;13.10;;;23.10;99.90;;;;;;4590806;19;20368;-34
2022/08/19 06:53:29;;;;;;;14.00;12.32;;;22.90;99.90;;;;;;4592505;19;20035;-42
2022/08/19 06:55:01;;;;;;;13.95;12.50;;;22.70;99.90;;;;;;4591186;19;20011;-34
2022/08/19 06:56:36;;;;;;;14.38;12.93;;;22.60;99.90;;;;;;4589904;19;20081;-38
2022/08/19 06:58:07;;;;;;;14.57;13.05;;;22.40;99.90;;;;;;4591642;19;20353;-35
2022/08/19 06:59:38;;;;;;;13.93;12.60;;;22.40;99.90;;;;;;4592040;19;20018;-40
2022/08/19 07:01:09;;;;;;;13.98;12.63;;;22.40;99.90;;;;;;4591401;19;20402;-42
2022/08/19 07:02:43;;;;;;;13.25;11.93;;;22.30;99.90;;;;;;4590687;19;20014;-45
2022/08/19 07:04:16;;;;;;;15.73;13.20;;;22.30;99.90;;;;;;4590837;19;20018;-39
2022/08/19 07:05:47;;;;;;;12.73;11.43;;;22.70;99.90;;;;;;4590985;19;20414;-42
2022/08/19 07:07:19;;;;;;;12.57;11.38;;;23.00;99.90;;;;;;4591867;19;20034;-41
2022/08/19 07:08:51;;;;;;;12.25;11.15;;;23.20;99.90;;;;;;4589502;19;20081;-40
2022/08/19 07:10:22;;;;;;;14.02;11.73;;;23.30;99.90;;;;;;4591973;19;20006;-35
2022/08/19 07:11:53;;;;;;;12.38;11.23;;;23.60;99.90;;;;;;4592682;19;20013;-42
2022/08/19 07:13:24;;;;;;;15.30;11.57;;;23.80;99.90;;;;;;4590638;19;20531;-36
2022/08/19 07:14:57;;;;;;;13.32;10.90;;;23.90;99.90;;;;;;4591785;19;20039;-40
2022/08/19 07:16:28;;;;;;;9.57;8.70;;;24.10;99.90;;;;;;4591483;19;20002;-39
2022/08/19 07:17:59;;;;;;;10.23;9.25;;;24.10;99.90;;;;;;4590710;19;20500;-37
2022/08/19 07:19:31;;;;;;;9.63;8.60;;;24.10;99.90;;;;;;4589233;19;20473;-42
2022/08/19 07:21:08;;;;;;;8.38;7.65;;;24.10;99.90;;;;;;4590387;19;20074;-37
2022/08/19 07:22:39;;;;;;;10.38;9.30;;;24.10;99.90;;;;;;4591392;19;20420;-33
2022/08/19 07:24:12;;;;;;;;;;;24.20;99.90;;;;;;4592177;19;20011;-38
2022/08/19 07:25:43;;;;;;;10.18;9.18;;;24.30;99.90;;;;;;4590835;19;19922;-39
2022/08/19 07:27:14;;;;;;;;;;;24.40;99.90;;;;;;4592750;19;20002;-42
2022/08/19 07:28:46;;;;;;;9.30;8.40;;;24.50;99.90;;;;;;4592390;19;19911;-41
2022/08/19 07:30:17;;;;;;;10.98;9.88;;;24.30;99.90;;;;;;4590500;19;20010;-36
2022/08/19 07:31:50;;;;;;;9.90;8.90;;;24.20;99.90;;;;;;4591189;19;20045;-41
2022/08/19 07:33:21;;;;;;;12.23;9.45;;;24.10;99.90;;;;;;4592290;19;20003;-41
2022/08/19 07:34:52;;;;;;;12.18;10.40;;;24.00;99.90;;;;;;4592089;19;20014;-39
2022/08/19 07:36:25;;;;;;;10.15;9.35;;;24.10;99.90;;;;;;4591274;19;20014;-39
2022/08/19 07:37:56;;;;;;;13.80;11.55;;;24.20;99.90;;;;;;4590312;19;20014;-36
2022/08/19 07:39:29;;;;;;;12.05;10.75;;;24.40;99.90;;;;;;4590809;19;20033;-37
2022/08/19 07:41:00;;;;;;;9.70;8.70;;;24.50;99.90;;;;;;4589864;19;20039;-37
2022/08/19 07:42:31;;;;;;;9.05;8.15;;;24.60;99.90;;;;;;4591457;19;20014;-38
2022/08/19 07:44:03;;;;;;;9.13;8.23;;;24.50;99.90;;;;;;4591252;19;20034;-35
2022/08/19 07:45:34;;;;;;;9.65;8.65;;;24.40;99.90;;;;;;4590501;19;20464;-38
2022/08/19 07:47:06;;;;;;;9.80;8.80;;;24.40;99.90;;;;;;4590784;19;20006;-39
2022/08/19 07:48:37;;;;;;;9.25;8.38;;;24.30;99.90;;;;;;4591254;19;20022;-39
2022/08/19 07:50:09;;;;;;;9.63;8.40;;;24.30;99.90;;;;;;4591516;19;20030;-33
2022/08/19 07:51:40;;;;;;;12.88;10.80;;;24.30;99.90;;;;;;4591600;19;19998;-38
2022/08/19 07:53:12;;;;;;;8.55;7.65;;;24.40;99.90;;;;;;4590996;19;20471;-35
2022/08/19 07:54:43;;;;;;;10.43;9.43;;;24.50;99.90;;;;;;4589833;19;20011;-42
2022/08/19 07:56:14;;;;;;;11.50;9.77;;;24.60;99.90;;;;;;4591014;19;20463;-35
2022/08/19 07:57:45;;;;;;;11.43;9.88;;;24.70;99.90;;;;;;4589847;19;20074;-39
2022/08/19 07:59:17;;;;;;;8.73;7.93;;;24.80;99.90;;;;;;4590667;19;20007;-34
2022/08/19 08:00:49;;;;;;;8.25;7.50;;;24.70;99.90;;;;;;4590864;19;20011;-42
2022/08/19 08:02:20;;;;;;;8.38;7.57;;;24.60;99.90;;;;;;4590293;19;20022;-34